Dades meteomassalio
Diari Summary for Diciembre 7, 2017 Units:  Metric    English   Both
« Previous Day
Next Day »
Diari Semanal Mensual Anual Personalitzat
  Maxima: Minima: Mijana:
Temperatura: 8.3 °C -8.3 °C -2.2 °C
Rosada: 1.0 °C -9.7 °C -5.2 °C
Humitat: 91 % 58 % 81 %
Velocitat del vent: 17.7 km/h 0.0 km/h 0.9 km/h
Racha vent: 17.7 km/h - -
Vent:- - SW
Pressio: 1037.5 hPa 1032.7 hPa -
Pluja: 0.0 mm    
Historical Graphs
 
 
Tabular Data for Diciembre 7, 2017
Time Temperature Dew Point Pressure Wind Wind Speed Wind Gust Humidity Rainfall Rate (Hourly) solar Conditions
00:04 -5.6 °C -7.4 °C 1037.5 hPa WSW 5.6 km/h 5.6 km/h 87 % 0.0 mm 0.0 W/m2 RA
00:09 -5.6 °C -7.2 °C 1037.5 hPa Calm     88 % 0.0 mm 0.0 W/m2 CLR
00:14 -5.6 °C -7.2 °C 1037.5 hPa Calm     88 % 0.0 mm 0.0 W/m2 CLR
00:19 -6.1 °C -7.8 °C 1037.1 hPa WSW 3.7 km/h 3.7 km/h 88 % 0.0 mm 0.0 W/m2 CLR
00:24 -6.1 °C -7.8 °C 1037.1 hPa WSW 5.6 km/h 5.6 km/h 88 % 0.0 mm 0.0 W/m2 CLR
00:29 -6.1 °C -7.8 °C 1037.1 hPa WSW 3.7 km/h 3.7 km/h 88 % 0.0 mm 0.0 W/m2 CLR
00:34 -6.1 °C -7.8 °C 1037.1 hPa WSW 1.9 km/h 1.9 km/h 88 % 0.0 mm 0.0 W/m2 CLR
00:39 -6.1 °C -7.8 °C 1037.1 hPa Calm     88 % 0.0 mm 0.0 W/m2 CLR
00:44 -6.1 °C -7.9 °C 1037.1 hPa Calm     87 % 0.0 mm 0.0 W/m2 CLR
00:49 -6.1 °C -7.8 °C 1037.1 hPa Calm     88 % 0.0 mm 0.0 W/m2 CLR
00:54 -6.1 °C -7.8 °C 1037.1 hPa West 5.6 km/h 5.6 km/h 88 % 0.0 mm 0.0 W/m2 CLR
00:59 -6.1 °C -7.8 °C 1037.1 hPa Calm     88 % 0.0 mm 0.0 W/m2 CLR
01:04 -6.1 °C -7.8 °C 1037.1 hPa Calm     88 % 0.0 mm 0.0 W/m2 CLR
01:05 -6.1 °C -7.8 °C 1037.1 hPa Calm     88 % 0.0 mm 0.0 W/m2 CLR
01:10 -5.6 °C -7.4 °C 1036.8 hPa Calm     87 % 0.0 mm 0.0 W/m2 CLR
01:15 -5.6 °C -7.2 °C 1036.8 hPa West 1.9 km/h   88 % 0.0 mm 0.0 W/m2 CLR
01:20 -6.1 °C -7.8 °C 1036.8 hPa West 1.6 km/h 1.6 km/h 88 % 0.0 mm 0.0 W/m2 CLR
01:25 -6.1 °C -7.6 °C 1036.8 hPa West 3.7 km/h 3.7 km/h 89 % 0.0 mm 0.0 W/m2 CLR
01:30 -6.1 °C -7.6 °C 1036.8 hPa West 3.7 km/h 3.7 km/h 89 % 0.0 mm 0.0 W/m2 CLR
01:35 -6.1 °C -7.8 °C 1036.8 hPa Calm     88 % 0.0 mm 0.0 W/m2 CLR
01:40 -6.1 °C -7.8 °C 1036.5 hPa Calm     88 % 0.0 mm 0.0 W/m2 CLR
01:45 -6.1 °C -7.8 °C 1036.5 hPa Calm     88 % 0.0 mm 0.0 W/m2 CLR
01:50 -5.6 °C -7.2 °C 1036.5 hPa Calm     88 % 0.0 mm 0.0 W/m2 CLR
01:55 -5.6 °C -7.2 °C 1036.5 hPa West 5.6 km/h 5.6 km/h 88 % 0.0 mm 0.0 W/m2 CLR
02:00 -5.6 °C -7.1 °C 1036.5 hPa WSW 6.4 km/h 6.4 km/h 89 % 0.0 mm 0.0 W/m2 CLR
02:05 -6.1 °C -7.6 °C 1036.5 hPa WSW 5.6 km/h 5.6 km/h 89 % 0.0 mm 0.0 W/m2 CLR
02:10 -6.1 °C -7.6 °C 1036.5 hPa Calm     89 % 0.0 mm 0.0 W/m2 CLR
02:15 -6.1 °C -7.6 °C 1036.5 hPa Calm     89 % 0.0 mm 0.0 W/m2 CLR
02:20 -6.1 °C -7.6 °C 1036.5 hPa WSW 1.6 km/h 1.6 km/h 89 % 0.0 mm 0.0 W/m2 CLR
02:25 -6.1 °C -7.6 °C 1036.5 hPa Calm     89 % 0.0 mm 0.0 W/m2 CLR
02:30 -6.1 °C -7.6 °C 1036.5 hPa Calm     89 % 0.0 mm 0.0 W/m2 CLR
02:35 -6.7 °C -8.1 °C 1036.5 hPa Calm     90 % 0.0 mm 0.0 W/m2 CLR
02:40 -6.7 °C -8.2 °C 1036.5 hPa Calm     89 % 0.0 mm 0.0 W/m2 CLR
02:45 -6.7 °C -8.2 °C 1036.5 hPa Calm     89 % 0.0 mm 0.0 W/m2 CLR
02:50 -6.7 °C -8.2 °C 1036.5 hPa Calm     89 % 0.0 mm 0.0 W/m2 CLR
02:55 -6.7 °C -8.2 °C 1036.5 hPa West 5.6 km/h 5.6 km/h 89 % 0.0 mm 0.0 W/m2 CLR
03:00 -6.7 °C -8.2 °C 1036.5 hPa Calm     89 % 0.0 mm 0.0 W/m2 CLR
03:05 -6.7 °C -8.1 °C 1036.8 hPa Calm     90 % 0.0 mm 0.0 W/m2 CLR
03:10 -6.7 °C -8.1 °C 1036.8 hPa West 1.9 km/h   90 % 0.0 mm 0.0 W/m2 CLR
03:15 -6.7 °C -8.1 °C 1036.8 hPa Calm     90 % 0.0 mm 0.0 W/m2 CLR
03:20 -6.7 °C -8.2 °C 1036.8 hPa Calm     89 % 0.0 mm 0.0 W/m2 CLR
03:25 -6.7 °C -8.1 °C 1036.8 hPa Calm     90 % 0.0 mm 0.0 W/m2 CLR
03:30 -6.7 °C -8.1 °C 1036.5 hPa Calm     90 % 0.0 mm 0.0 W/m2 CLR
03:35 -6.7 °C -8.2 °C 1036.5 hPa Calm     89 % 0.0 mm 0.0 W/m2 CLR
03:40 -6.7 °C -8.1 °C 1036.5 hPa Calm     90 % 0.0 mm 0.0 W/m2 CLR
03:45 -6.7 °C -8.1 °C 1036.5 hPa Calm     90 % 0.0 mm 0.0 W/m2 CLR
03:50 -6.7 °C -8.2 °C 1036.5 hPa Calm     89 % 0.0 mm 0.0 W/m2 CLR
03:55 -7.2 °C -8.7 °C 1036.5 hPa Calm     89 % 0.0 mm 0.0 W/m2 CLR
04:00 -7.2 °C -8.7 °C 1036.5 hPa Calm     89 % 0.0 mm 0.0 W/m2 CLR
04:05 -7.2 °C -8.7 °C 1036.5 hPa Calm     89 % 0.0 mm 0.0 W/m2 CLR
04:11 -7.2 °C -8.7 °C 1036.5 hPa Calm     89 % 0.0 mm 0.0 W/m2 CLR
04:16 -7.2 °C -8.6 °C 1036.5 hPa Calm     90 % 0.0 mm 0.0 W/m2 CLR
04:21 -7.2 °C -8.6 °C 1036.5 hPa Calm     90 % 0.0 mm 0.0 W/m2 CLR
04:22 -7.2 °C -8.6 °C 1036.5 hPa Calm     90 % 0.0 mm 0.0 W/m2 CLR
04:23 -7.2 °C -8.6 °C 1036.5 hPa Calm     90 % 0.0 mm 0.0 W/m2 CLR
04:28 -7.2 °C -8.6 °C 1036.1 hPa Calm     90 % 0.0 mm 0.0 W/m2 CLR
04:33 -7.2 °C -8.6 °C 1036.1 hPa West 5.6 km/h 5.6 km/h 90 % 0.0 mm 0.0 W/m2 CLR
04:38 -7.2 °C -8.6 °C 1036.1 hPa West 3.7 km/h 3.7 km/h 90 % 0.0 mm 0.0 W/m2 CLR
04:43 -7.2 °C -8.6 °C 1036.1 hPa Calm     90 % 0.0 mm 0.0 W/m2 CLR
04:48 -7.8 °C -9.1 °C 1036.1 hPa Calm     90 % 0.0 mm 0.0 W/m2 CLR
04:53 -7.8 °C -9.1 °C 1036.1 hPa Calm     90 % 0.0 mm 0.0 W/m2 CLR
05:03 -7.8 °C -9.3 °C 1036.1 hPa Calm     89 % 0.0 mm 0.0 W/m2 CLR
05:08 -7.8 °C -9.3 °C 1036.1 hPa West 1.9 km/h 1.9 km/h 89 % 0.0 mm 0.0 W/m2 CLR
05:13 -7.8 °C -9.1 °C 1036.1 hPa Calm     90 % 0.0 mm 0.0 W/m2 CLR
05:18 -7.8 °C -9.1 °C 1036.1 hPa Calm     90 % 0.0 mm 0.0 W/m2 CLR
05:23 -7.8 °C -9.1 °C 1036.1 hPa Calm     90 % 0.0 mm 0.0 W/m2 CLR
05:28 -7.2 °C -8.6 °C 1036.1 hPa Calm     90 % 0.0 mm 0.0 W/m2 CLR
05:33 -7.2 °C -8.6 °C 1036.1 hPa Calm     90 % 0.0 mm 0.0 W/m2 CLR
05:38 -7.2 °C -8.6 °C 1035.8 hPa West 3.7 km/h 3.7 km/h 90 % 0.0 mm 0.0 W/m2 CLR
05:43 -7.2 °C -8.6 °C 1035.8 hPa Calm     90 % 0.0 mm 0.0 W/m2 CLR
05:48 -7.2 °C -8.6 °C 1035.8 hPa West 3.7 km/h 3.7 km/h 90 % 0.0 mm 0.0 W/m2 CLR
05:53 -7.2 °C -8.6 °C 1035.8 hPa Calm     90 % 0.0 mm 0.0 W/m2 CLR
05:58 -7.2 °C -8.6 °C 1035.8 hPa Calm     90 % 0.0 mm 0.0 W/m2 CLR
06:03 -7.2 °C -8.6 °C 1035.8 hPa Calm     90 % 0.0 mm 0.0 W/m2 CLR
06:08 -7.2 °C -8.6 °C 1035.8 hPa WSW 5.6 km/h 5.6 km/h 90 % 0.0 mm 0.0 W/m2 CLR
06:13 -7.2 °C -8.6 °C 1035.8 hPa WSW 6.4 km/h 6.4 km/h 90 % 0.0 mm 0.0 W/m2 CLR
06:18 -7.2 °C -8.6 °C 1035.4 hPa West 7.4 km/h 7.4 km/h 90 % 0.0 mm 0.0 W/m2 CLR
06:23 -7.8 °C -9.1 °C 1035.4 hPa Calm     90 % 0.0 mm 0.0 W/m2 CLR
06:28 -7.8 °C -9.1 °C 1035.4 hPa Calm     90 % 0.0 mm 0.0 W/m2 CLR
06:33 -7.8 °C -9.1 °C 1035.4 hPa Calm     90 % 0.0 mm 0.0 W/m2 CLR
06:38 -7.8 °C -9.1 °C 1035.4 hPa Calm     90 % 0.0 mm 0.0 W/m2 CLR
06:43 -7.8 °C -9.1 °C 1035.4 hPa West 9.3 km/h 9.3 km/h 90 % 0.0 mm 0.0 W/m2 CLR
06:48 -7.8 °C -9.0 °C 1035.4 hPa West 3.7 km/h 3.7 km/h 91 % 0.0 mm 0.0 W/m2 CLR
06:53 -7.8 °C -9.1 °C 1035.4 hPa Calm     90 % 0.0 mm 0.0 W/m2 CLR
06:58 -7.8 °C -9.1 °C 1035.8 hPa Calm     90 % 0.0 mm 0.0 W/m2 CLR
07:03 -7.8 °C -9.1 °C 1035.8 hPa Calm     90 % 0.0 mm 0.0 W/m2 CLR
07:08 -7.8 °C -9.1 °C 1035.8 hPa Calm     90 % 0.0 mm 0.0 W/m2 CLR
07:13 -8.3 °C -9.7 °C 1035.8 hPa West 3.7 km/h 3.7 km/h 90 % 0.0 mm 0.0 W/m2 CLR
07:15 -8.3 °C -9.7 °C 1035.8 hPa West 1.9 km/h 1.9 km/h 90 % 0.0 mm 0.0 W/m2 CLR
07:20 -8.3 °C -9.6 °C 1035.8 hPa West 3.7 km/h 3.7 km/h 91 % 0.0 mm 0.0 W/m2 CLR
07:25 -8.3 °C -9.7 °C 1035.8 hPa Calm     90 % 0.0 mm 0.0 W/m2 CLR
07:30 -7.8 °C -9.1 °C 1035.8 hPa West 9.7 km/h 9.7 km/h 90 % 0.0 mm 0.0 W/m2 CLR
07:35 -7.8 °C -9.0 °C 1035.8 hPa West 5.6 km/h 5.6 km/h 91 % 0.0 mm 0.0 W/m2 CLR
07:40 -7.8 °C -9.1 °C 1036.1 hPa Calm     90 % 0.0 mm 0.0 W/m2 CLR
07:45 -7.8 °C -9.1 °C 1036.1 hPa Calm     90 % 0.0 mm 0.0 W/m2 CLR
07:50 -8.3 °C -9.7 °C 1036.1 hPa Calm     90 % 0.0 mm 0.0 W/m2 CLR
07:55 -7.8 °C -9.1 °C 1036.1 hPa West 9.3 km/h 9.3 km/h 90 % 0.0 mm 0.0 W/m2 CLR
08:00 -7.8 °C -9.1 °C 1035.8 hPa West 5.6 km/h 5.6 km/h 90 % 0.0 mm 5.0 W/m2 CLR
08:05 -7.2 °C -8.4 °C 1036.1 hPa Calm     91 % 0.0 mm 9.0 W/m2 OVC
08:10 -7.2 °C -8.6 °C 1036.1 hPa Calm     90 % 0.0 mm 12.0 W/m2 OVC
08:15 -7.2 °C -8.6 °C 1035.8 hPa Calm     90 % 0.0 mm 14.0 W/m2 BKN
08:20 -7.2 °C -8.6 °C 1035.8 hPa Calm     90 % 0.0 mm 14.0 W/m2 BKN
08:25 -7.2 °C -8.6 °C 1035.8 hPa Calm     90 % 0.0 mm 18.0 W/m2 BKN
08:30 -7.2 °C -8.6 °C 1036.1 hPa West 1.9 km/h 1.9 km/h 90 % 0.0 mm 25.0 W/m2 BKN
08:35 -7.2 °C -8.6 °C 1036.1 hPa Calm     90 % 0.0 mm 37.0 W/m2 BKN
08:40 -7.2 °C -8.4 °C 1036.1 hPa West 5.6 km/h 5.6 km/h 91 % 0.0 mm 49.0 W/m2 SCT
08:45 -6.7 °C -7.9 °C 1036.1 hPa Calm     91 % 0.0 mm 63.0 W/m2 SCT
08:50 -6.7 °C -7.9 °C 1035.8 hPa Calm     91 % 0.0 mm 76.0 W/m2 FEW
08:55 -6.1 °C -7.5 °C 1036.1 hPa Calm     90 % 0.0 mm 67.0 W/m2 FEW
09:00 -6.1 °C -7.6 °C 1036.1 hPa Calm     89 % 0.0 mm 70.0 W/m2 FEW
09:01 -6.1 °C -7.6 °C 1036.1 hPa Calm     89 % 0.0 mm 70.0 W/m2 FEW
09:06 -5.6 °C -6.9 °C 1036.1 hPa Calm     90 % 0.0 mm 83.0 W/m2 FEW
09:11 -5.6 °C -6.9 °C 1036.1 hPa Calm     90 % 0.0 mm 100.0 W/m2 CLR
09:16 -5.6 °C -7.1 °C 1036.1 hPa Calm     89 % 0.0 mm 109.0 W/m2 CLR
09:21 -5.0 °C -6.6 °C 1036.1 hPa Calm     89 % 0.0 mm 109.0 W/m2 CLR
09:26 -4.4 °C -6.0 °C 1036.1 hPa Calm     89 % 0.0 mm 104.0 W/m2 CLR
09:31 -4.4 °C -6.0 °C 1036.5 hPa Calm     89 % 0.0 mm 121.0 W/m2 CLR
09:36 -4.4 °C -6.0 °C 1036.5 hPa Calm     89 % 0.0 mm 132.0 W/m2 CLR
09:41 -3.9 °C -5.3 °C 1036.5 hPa Calm     90 % 0.0 mm 155.0 W/m2 CLR
09:46 -3.9 °C -5.4 °C 1036.5 hPa Calm     89 % 0.0 mm 165.0 W/m2 CLR
09:51 -3.3 °C -4.9 °C 1036.5 hPa Calm     89 % 0.0 mm 139.0 W/m2 CLR
09:56 -3.3 °C -5.1 °C 1036.8 hPa Calm     88 % 0.0 mm 139.0 W/m2 CLR
10:01 -2.8 °C -4.5 °C 1036.8 hPa Calm     88 % 0.0 mm 149.0 W/m2 CLR
10:06 -2.8 °C -4.7 °C 1036.8 hPa Calm     87 % 0.0 mm 144.0 W/m2 CLR
10:11 -2.2 °C -4.1 °C 1036.8 hPa Calm     87 % 0.0 mm 163.0 W/m2 CLR
10:16 -2.2 °C -4.1 °C 1036.8 hPa Calm     87 % 0.0 mm 174.0 W/m2 CLR
10:21 -1.7 °C -3.6 °C 1036.8 hPa Calm     87 % 0.0 mm 192.0 W/m2 CLR
10:26 -1.7 °C -3.6 °C 1036.8 hPa Calm     87 % 0.0 mm 223.0 W/m2 CLR
10:31 -1.7 °C -3.7 °C 1036.8 hPa Calm     86 % 0.0 mm 192.0 W/m2 CLR
10:36 -1.1 °C -3.3 °C 1036.8 hPa Calm     85 % 0.0 mm 232.0 W/m2 CLR
10:41 -0.6 °C -2.8 °C 1037.1 hPa Calm     85 % 0.0 mm 253.0 W/m2 CLR
10:46 -0.6 °C -2.9 °C 1037.1 hPa Calm     84 % 0.0 mm 162.0 W/m2 CLR
10:51 0.0 °C -2.4 °C 1037.1 hPa Calm     84 % 0.0 mm 204.0 W/m2 CLR
10:56 0.0 °C -2.6 °C 1037.5 hPa Calm     83 % 0.0 mm 225.0 W/m2 CLR
11:01 0.6 °C -2.0 °C 1037.1 hPa Calm     83 % 0.0 mm 221.0 W/m2 CLR
11:06 0.6 °C -2.3 °C 1037.1 hPa Calm     81 % 0.0 mm 327.0 W/m2 CLR
11:11 1.1 °C -1.6 °C 1037.1 hPa Calm     82 % 0.0 mm 394.0 W/m2 CLR
11:16 1.7 °C -1.2 °C 1037.1 hPa Calm     81 % 0.0 mm 410.0 W/m2 CLR
11:21 1.7 °C -1.6 °C 1037.1 hPa Calm     79 % 0.0 mm 174.0 W/m2 CLR
11:26 2.2 °C -1.2 °C 1037.1 hPa Calm     78 % 0.0 mm 169.0 W/m2 CLR
11:31 2.2 °C -1.4 °C 1036.8 hPa Calm     77 % 0.0 mm 165.0 W/m2 CLR
11:36 2.2 °C -1.4 °C 1036.8 hPa Calm     77 % 0.0 mm 167.0 W/m2 CLR
11:41 2.8 °C -0.8 °C 1036.8 hPa Calm     77 % 0.0 mm 206.0 W/m2 CLR
11:46 2.8 °C -0.8 °C 1036.5 hPa Calm     77 % 0.0 mm 283.0 W/m2 CLR
11:51 2.8 °C -0.8 °C 1036.5 hPa Calm     77 % 0.0 mm 338.0 W/m2 CLR
11:56 3.3 °C -0.5 °C 1036.5 hPa Calm     76 % 0.0 mm 271.0 W/m2 CLR
12:01 3.3 °C -0.7 °C 1036.1 hPa Calm     75 % 0.0 mm 230.0 W/m2 CLR
12:06 3.3 °C -0.9 °C 1035.8 hPa Calm     74 % 0.0 mm 244.0 W/m2 CLR
12:11 3.3 °C -1.1 °C 1035.8 hPa Calm     73 % 0.0 mm 253.0 W/m2 CLR
12:16 3.9 °C -0.5 °C 1035.8 hPa Calm     73 % 0.0 mm 404.0 W/m2 CLR
12:21 4.4 °C -0.2 °C 1035.8 hPa Calm     72 % 0.0 mm 436.0 W/m2 CLR
12:26 5.0 °C 0.2 °C 1035.8 hPa Calm     71 % 0.0 mm 404.0 W/m2 CLR
12:31 5.0 °C 0.0 °C 1035.8 hPa Calm     70 % 0.0 mm 353.0 W/m2 CLR
12:36 5.6 °C 0.1 °C 1035.4 hPa Calm     68 % 0.0 mm 357.0 W/m2 CLR
12:41 5.6 °C 0.1 °C 1035.4 hPa Calm     68 % 0.0 mm 315.0 W/m2 CLR
12:46 6.1 °C 0.4 °C 1035.4 hPa Calm     67 % 0.0 mm 297.0 W/m2 CLR
12:51 6.1 °C 0.2 °C 1035.4 hPa Calm     66 % 0.0 mm 387.0 W/m2 CLR
12:56 6.1 °C 0.2 °C 1035.4 hPa Calm   0.2 km/h 66 % 0.0 mm 359.0 W/m2 CLR
13:01 6.1 °C 0.0 °C 1035.1 hPa Calm     65 % 0.0 mm 359.0 W/m2 CLR
13:06 6.7 °C 0.6 °C 1035.1 hPa Calm     65 % 0.0 mm 350.0 W/m2 CLR
13:11 6.7 °C 0.3 °C 1035.1 hPa Calm     64 % 0.0 mm 290.0 W/m2 CLR
13:16 6.7 °C 0.3 °C 1035.1 hPa Calm     64 % 0.0 mm 246.0 W/m2 CLR
13:21 6.7 °C 0.1 °C 1034.8 hPa East 3.7 km/h 3.7 km/h 63 % 0.0 mm 420.0 W/m2 CLR
13:26 7.2 °C 0.4 °C 1034.8 hPa East 5.6 km/h 5.6 km/h 62 % 0.0 mm 353.0 W/m2 CLR
13:36 6.7 °C 0.1 °C 1034.8 hPa ENE 5.6 km/h 5.6 km/h 63 % 0.0 mm 248.0 W/m2 CLR
13:41 6.7 °C 0.1 °C 1034.8 hPa East 9.7 km/h 9.7 km/h 63 % 0.0 mm 262.0 W/m2 CLR
13:46 6.7 °C 0.1 °C 1034.8 hPa ENE 13.0 km/h 13.0 km/h 63 % 0.0 mm 227.0 W/m2 CLR
13:51 6.1 °C -0.2 °C 1034.8 hPa ENE 9.3 km/h 9.3 km/h 64 % 0.0 mm 239.0 W/m2 CLR
13:56 6.1 °C 0.0 °C 1034.8 hPa ENE 5.6 km/h 5.6 km/h 65 % 0.0 mm 359.0 W/m2 CLR
14:06 6.7 °C 0.6 °C 1034.8 hPa East 17.7 km/h 17.7 km/h 65 % 0.0 mm 197.0 W/m2 CLR
14:21 6.1 °C 0.4 °C 1034.4 hPa NE 6.4 km/h 6.4 km/h 67 % 0.0 mm 218.0 W/m2 CLR
14:26 6.1 °C 0.2 °C 1034.4 hPa ENE 1.9 km/h 1.9 km/h 66 % 0.0 mm 214.0 W/m2 CLR
14:31 6.1 °C 0.2 °C 1034.4 hPa East 9.3 km/h 9.3 km/h 66 % 0.0 mm 220.0 W/m2 CLR
14:36 6.1 °C 0.2 °C 1034.1 hPa Calm     66 % 0.0 mm 232.0 W/m2 CLR
14:46 6.7 °C 0.8 °C 1034.1 hPa Calm     66 % 0.0 mm 248.0 W/m2 CLR
14:51 6.7 °C 0.6 °C 1034.1 hPa Calm     65 % 0.0 mm 241.0 W/m2 CLR
14:56 6.7 °C 0.3 °C 1033.7 hPa Calm     64 % 0.0 mm 211.0 W/m2 CLR
15:01 7.2 °C 0.8 °C 1033.7 hPa Calm     64 % 0.0 mm 209.0 W/m2 CLR
15:06 7.2 °C 0.8 °C 1033.7 hPa Calm     64 % 0.0 mm 241.0 W/m2 CLR
15:07 7.2 °C 0.8 °C 1033.7 hPa Calm     64 % 0.0 mm 204.0 W/m2 CLR
15:12 7.2 °C 0.8 °C 1033.7 hPa Calm     64 % 0.0 mm 281.0 W/m2 CLR
15:17 7.2 °C 0.7 °C 1033.7 hPa Calm     63 % 0.0 mm 339.0 W/m2 CLR
15:22 7.8 °C 0.9 °C 1033.7 hPa Calm     62 % 0.0 mm 357.0 W/m2 CLR
15:25 7.8 °C 0.9 °C 1033.7 hPa Calm     62 % 0.0 mm 341.0 W/m2 CLR
15:33 7.8 °C 0.5 °C 1033.7 hPa Calm     60 % 0.0 mm 352.0 W/m2 CLR
15:38 8.3 °C 1.0 °C 1033.4 hPa Calm     60 % 0.0 mm 352.0 W/m2 CLR
15:43 8.3 °C 0.8 °C 1033.7 hPa Calm     59 % 0.0 mm 148.0 W/m2 CLR
15:48 7.8 °C 0.3 °C 1033.7 hPa Calm     59 % 0.0 mm 128.0 W/m2 CLR
15:53 7.8 °C 0.5 °C 1033.4 hPa Calm     60 % 0.0 mm 134.0 W/m2 CLR
15:58 7.8 °C 0.5 °C 1033.4 hPa Calm     60 % 0.0 mm 176.0 W/m2 CLR
16:03 7.8 °C 0.5 °C 1033.4 hPa Calm     60 % 0.0 mm 258.0 W/m2 CLR
16:08 7.8 °C 0.3 °C 1033.7 hPa Calm     59 % 0.0 mm 163.0 W/m2 CLR
16:18 7.2 °C -0.5 °C 1033.7 hPa Calm     58 % 0.0 mm 148.0 W/m2 CLR
16:23 7.2 °C -0.5 °C 1033.4 hPa Calm     58 % 0.0 mm 123.0 W/m2 CLR
16:25 7.2 °C -0.3 °C 1033.4 hPa Calm     59 % 0.0 mm 114.0 W/m2 CLR
16:30 6.7 °C -0.8 °C 1033.7 hPa Calm     59 % 0.0 mm 84.0 W/m2 CLR
16:35 6.7 °C -0.8 °C 1033.7 hPa Calm     59 % 0.0 mm 67.0 W/m2 FEW
16:50 6.1 °C -1.1 °C 1033.4 hPa Calm     60 % 0.0 mm 40.0 W/m2 SCT
16:55 5.6 °C -1.4 °C 1033.4 hPa Calm     61 % 0.0 mm 33.0 W/m2 BKN
17:00 5.6 °C -1.2 °C 1033.4 hPa Calm     62 % 0.0 mm 23.0 W/m2 BKN
17:05 5.0 °C -1.7 °C 1033.1 hPa Calm     62 % 0.0 mm 18.0 W/m2 BKN
17:10 4.4 °C -2.0 °C 1033.1 hPa Calm     63 % 0.0 mm 16.0 W/m2 BKN
17:15 3.9 °C -2.5 °C 1033.4 hPa Calm     63 % 0.0 mm 16.0 W/m2 BKN
17:20 3.3 °C -2.8 °C 1033.4 hPa Calm     64 % 0.0 mm 14.0 W/m2 BKN
17:25 2.8 °C -3.4 °C 1033.4 hPa Calm     64 % 0.0 mm 11.0 W/m2 BKN
17:35 2.2 °C -3.5 °C 1033.4 hPa Calm     66 % 0.0 mm 5.0 W/m2 OVC
17:40 2.2 °C -3.5 °C 1033.4 hPa Calm     66 % 0.0 mm 0.0 W/m2 OVC
17:45 1.7 °C -4.0 °C 1033.4 hPa Calm     66 % 0.0 mm 0.0 W/m2 CLR
17:50 1.7 °C -4.2 °C 1033.4 hPa Calm     65 % 0.0 mm 0.0 W/m2 CLR
17:55 1.1 °C -4.3 °C 1033.4 hPa Calm     67 % 0.0 mm 0.0 W/m2 CLR
18:00 1.1 °C -4.3 °C 1033.4 hPa Calm     67 % 0.0 mm 0.0 W/m2 CLR
18:05 1.1 °C -3.9 °C 1033.7 hPa Calm     69 % 0.0 mm 0.0 W/m2 CLR
18:15 0.6 °C -4.5 °C 1033.7 hPa Calm     69 % 0.0 mm 0.0 W/m2 CLR
18:20 0.6 °C -4.5 °C 1033.7 hPa Calm     69 % 0.0 mm 0.0 W/m2 CLR
18:25 0.0 °C -4.8 °C 1033.7 hPa Calm     70 % 0.0 mm 0.0 W/m2 CLR
18:26 0.0 °C -4.8 °C 1033.7 hPa Calm     70 % 0.0 mm 0.0 W/m2 CLR
18:31 0.0 °C -4.8 °C 1033.7 hPa Calm     70 % 0.0 mm 0.0 W/m2 CLR
18:36 0.6 °C -4.1 °C 1033.7 hPa Calm     71 % 0.0 mm 0.0 W/m2 CLR
18:41 0.6 °C -3.9 °C 1033.7 hPa Calm     72 % 0.0 mm 0.0 W/m2 CLR
18:46 0.6 °C -3.9 °C 1033.7 hPa Calm     72 % 0.0 mm 0.0 W/m2 CLR
18:51 0.6 °C -3.7 °C 1033.7 hPa Calm     73 % 0.0 mm 0.0 W/m2 CLR
18:56 0.6 °C -3.6 °C 1033.7 hPa Calm     74 % 0.0 mm 0.0 W/m2 CLR
19:01 0.0 °C -4.3 °C 1033.7 hPa Calm     73 % 0.0 mm 0.0 W/m2 CLR
19:22 -1.1 °C -5.0 °C 1033.7 hPa Calm     75 % 0.0 mm 0.0 W/m2 CLR
19:27 -1.1 °C -5.0 °C 1034.1 hPa Calm     75 % 0.0 mm 0.0 W/m2 CLR
19:32 -0.6 °C -4.1 °C 1034.1 hPa Calm     77 % 0.0 mm 0.0 W/m2 CLR
19:43 -1.1 °C -4.4 °C 1034.1 hPa Calm     78 % 0.0 mm 0.0 W/m2 CLR
19:48 -1.7 °C -5.0 °C 1034.1 hPa Calm     78 % 0.0 mm 0.0 W/m2 CLR
19:53 -1.7 °C -4.8 °C 1034.1 hPa Calm     79 % 0.0 mm 0.0 W/m2 CLR
19:58 -1.7 °C -4.8 °C 1034.1 hPa Calm     79 % 0.0 mm 0.0 W/m2 CLR
20:03 -2.2 °C -5.6 °C 1034.1 hPa Calm     78 % 0.0 mm 0.0 W/m2 CLR
20:08 -2.2 °C -5.4 °C 1034.1 hPa Calm     79 % 0.0 mm 0.0 W/m2 CLR
20:13 -2.8 °C -5.9 °C 1034.1 hPa Calm     79 % 0.0 mm 0.0 W/m2 CLR
20:18 -2.8 °C -5.7 °C 1033.7 hPa Calm     80 % 0.0 mm 0.0 W/m2 CLR
20:23 -2.8 °C -5.7 °C 1033.7 hPa Calm     80 % 0.0 mm 0.0 W/m2 CLR
20:28 -2.8 °C -5.7 °C 1033.7 hPa Calm     80 % 0.0 mm 0.0 W/m2 CLR
20:38 -3.3 °C -6.3 °C 1033.7 hPa Calm     80 % 0.0 mm 0.0 W/m2 CLR
20:43 -2.8 °C -5.7 °C 1033.7 hPa Calm     80 % 0.0 mm 0.0 W/m2 CLR
20:48 -2.8 °C -5.6 °C 1033.7 hPa Calm     81 % 0.0 mm 0.0 W/m2 CLR
20:58 -2.8 °C -5.6 °C 1033.7 hPa Calm     81 % 0.0 mm 0.0 W/m2 CLR
21:08 -2.8 °C -5.6 °C 1033.7 hPa Calm     81 % 0.0 mm 0.0 W/m2 CLR
21:13 -2.8 °C -5.6 °C 1033.4 hPa Calm     81 % 0.0 mm 0.0 W/m2 CLR
21:18 -3.3 °C -6.1 °C 1033.4 hPa Calm     81 % 0.0 mm 0.0 W/m2 CLR
21:28 -3.3 °C -5.9 °C 1033.4 hPa Calm     82 % 0.0 mm 0.0 W/m2 CLR
21:33 -3.3 °C -5.9 °C 1033.4 hPa Calm     82 % 0.0 mm 0.0 W/m2 CLR
21:38 -3.9 °C -6.5 °C 1033.4 hPa Calm     82 % 0.0 mm 0.0 W/m2 CLR
21:43 -3.9 °C -6.5 °C 1033.4 hPa Calm     82 % 0.0 mm 0.0 W/m2 CLR
21:49 -3.9 °C -6.5 °C 1033.4 hPa Calm     82 % 0.0 mm 0.0 W/m2 CLR
21:54 -3.9 °C -6.5 °C 1033.4 hPa Calm     82 % 0.0 mm 0.0 W/m2 CLR
21:59 -3.9 °C -6.5 °C 1033.4 hPa Calm     82 % 0.0 mm 0.0 W/m2 CLR
22:04 -3.9 °C -6.5 °C 1033.4 hPa Calm     82 % 0.0 mm 0.0 W/m2 CLR
22:14 -3.9 °C -6.2 °C 1033.1 hPa Calm     84 % 0.0 mm 0.0 W/m2 CLR
22:19 -3.9 °C -6.2 °C 1033.1 hPa Calm     84 % 0.0 mm 0.0 W/m2 CLR
22:29 -4.4 °C -6.9 °C 1033.1 hPa Calm     83 % 0.0 mm 0.0 W/m2 CLR
22:34 -4.4 °C -7.1 °C 1033.1 hPa Calm     82 % 0.0 mm 0.0 W/m2 CLR
22:39 -4.4 °C -6.9 °C 1033.1 hPa Calm     83 % 0.0 mm 0.0 W/m2 CLR
22:44 -3.9 °C -6.3 °C 1033.1 hPa Calm     83 % 0.0 mm 0.0 W/m2 CLR
22:49 -3.3 °C -5.7 °C 1032.7 hPa Calm     84 % 0.0 mm 0.0 W/m2 CLR
22:54 -3.9 °C -6.2 °C 1032.7 hPa Calm     84 % 0.0 mm 0.0 W/m2 CLR
22:59 -3.9 °C -6.1 °C 1032.7 hPa Calm     85 % 0.0 mm 0.0 W/m2 CLR
23:05 -3.9 °C -6.2 °C 1033.1 hPa Calm     84 % 0.0 mm 0.0 W/m2 CLR
23:10 -3.9 °C -6.2 °C 1033.1 hPa Calm     84 % 0.0 mm 0.0 W/m2 CLR
23:15 -4.4 °C -6.7 °C 1033.1 hPa Calm     84 % 0.0 mm 0.0 W/m2 CLR
23:20 -4.4 °C -6.7 °C 1032.7 hPa Calm     84 % 0.0 mm 0.0 W/m2 CLR
23:25 -4.4 °C -6.7 °C 1032.7 hPa Calm     84 % 0.0 mm 0.0 W/m2 CLR
23:30 -4.4 °C -6.6 °C 1032.7 hPa Calm     85 % 0.0 mm 0.0 W/m2 CLR
23:35 -3.9 °C -6.1 °C 1032.7 hPa Calm     85 % 0.0 mm 0.0 W/m2 CLR
23:40 -3.9 °C -6.1 °C 1033.1 hPa Calm     85 % 0.0 mm 0.0 W/m2 CLR
23:45 -3.9 °C -5.9 °C 1032.7 hPa Calm     86 % 0.0 mm 0.0 W/m2 CLR
23:46 -3.9 °C -5.9 °C 1032.7 hPa Calm     86 % 0.0 mm 0.0 W/m2 CLR
23:51 -3.9 °C -5.9 °C 1032.7 hPa Calm     86 % 0.0 mm 0.0 W/m2 CLR
23:56 -4.4 °C -6.6 °C 1032.7 hPa Calm     85 % 0.0 mm 0.0 W/m2 CLR
Lo Temps de Massalio
Compliments of Weather Underground - 1.25 mb